• Join FlightAware (Why Join?)
  • Login
  • US Flag 
07:43AM EDT


 

Airport Tracker/Info


-or-


 

Live Flight TrackerFlight Track Log ✈ N1169Z ✈ 11-Jul-2013 ✈ KBDH - KFCM

Flight Track Log - Related Links

Times and Time Zones

All times are in EDT time to prevent confusion due to time zone crossing. See the N1169Z flight status page for this flight to view local times or setup timezone preferences in your user account.

Time Position Orientation Groundspeed Altitude Reporting Facility
EDT Latitude Longitude Course Direction KTS MPH feet Rate Location/Type
04:48PM 45.0997 -95.0533 101° East 109 125 2,800  Level Minneapolis Center
04:49PM 45.0936 -95.0092 101° East 115 132 3,400 540 Climbing Minneapolis Center
04:50PM 45.0875 -94.9644 101° East 115 132 4,000 480 Climbing Minneapolis Center
04:51PM 45.0811 -94.9186 101° East 117 135 4,400 420 Climbing Minneapolis Center
04:52PM 45.0722 -94.8711 105° East 123 142 4,900 240 Climbing Minneapolis Center
04:53PM 45.0617 -94.8181 106° East 134 154 5,000  Climbing Minneapolis Center
04:54PM 45.0503 -94.7481 103° East 148 170 5,000  Level Minneapolis Center
04:55PM 45.0450 -94.6892 97° East 151 174 5,000  Level Minneapolis Center
04:56PM 45.0383 -94.6364 100° East 150 173 5,000  Level Minneapolis Center
04:57PM 45.0242 -94.5800 110° East 151 174 5,000  Level Minneapolis Center
04:58PM 45.0144 -94.5106 101° East 153 176 5,000  Level Minneapolis Center
04:59PM 45.0025 -94.4553 107° East 148 170 5,000  Level Minneapolis Center
05:00PM 44.9928 -94.3978 103° East 152 175 5,000  Level Minneapolis Center
05:01PM 44.9806 -94.3433 108° East 145 167 5,000  Level Minneapolis Center
05:02PM 44.9697 -94.2875 105° East 147 169 5,000  Level Minneapolis Center
05:03PM 44.9569 -94.2203 105° East 148 170 5,000  Level Minneapolis Center
05:04PM 44.9478 -94.1625 103° East 150 173 5,000  Level Minneapolis Center
05:06PM 44.9375 -94.1058 104° East 149 171 5,000  Level Minneapolis Center
05:07PM 44.9333 -94.0469 96° East 150 173 5,000 -120 Level Minneapolis Center
05:08PM 44.9278 -93.9886 98° East 149 171 4,800 -420 Descending Minneapolis Center
05:09PM 44.9161 -93.9269 105° East 161 185 4,200 -540 Descending Minneapolis Center
05:10PM 44.9022 -93.8547 105° East 161 185 3,700 -540 Descending Minneapolis Center
05:11PM 44.8939 -93.7933 101° East 161 185 3,200 -360 Descending Minneapolis Center
05:12PM 44.8817 -93.7344 106° East 156 180 3,000 -360 Descending Minneapolis Center
05:13PM 44.8708 -93.6761 105° East 156 180 2,500 -360 Descending Minneapolis Center
05:14PM 44.8608 -93.6167 103° East 156 180 2,300 -240 Descending Minneapolis Center
05:15PM 44.8514 -93.5589 103° East 153 176 2,000 -300 Descending Minneapolis Center
05:16PM 44.8433 -93.4961 100° East 137 158 1,800 -420 Descending Minneapolis Center
05:17PM 44.8381 -93.4542 100° East 109 125 1,200 -480 Descending Minneapolis Center
05:18PM 44.8189 -93.4539 179° South 89 102 900 -300 Descending Minneapolis Center
05:20PM 44.8167 -93.4500 125° Southeast  Level FlightAware Approximate